Time;durP1;ratioP1;P1;durP2;ratioP2;P2;SDS_P1;SDS_P2;PMS_P1;PMS_P2;Temp;Humidity;BMP_temperature;BMP_pressure;BME280_temperature;BME280_humidity;BME280_pressure;Samples;Min_cycle;Max_cycle;Signal;HPM_P1;HPM_P2
2023/12/24 00:01:11;;;;;;;9.30;2.67;;;;;;;;;;5042125;28;20568;-67
2023/12/24 00:03:38;;;;;;;8.93;3.58;;;;;;;;;;5038271;28;20659;-67
2023/12/24 00:06:05;;;;;;;11.25;2.35;;;;;;;;;;5036773;28;20034;-67
2023/12/24 00:08:32;;;;;;;12.70;2.72;;;;;;;;;;5042672;28;20152;-67
2023/12/24 00:10:58;;;;;;;5.97;2.83;;;;;;;;;;5042975;28;20473;-67
2023/12/24 00:13:25;;;;;;;7.57;2.53;;;;;;;;;;5041713;28;20043;-67
2023/12/24 00:15:51;;;;;;;5.75;2.10;;;;;;;;;;5037317;28;20069;-67
2023/12/24 00:18:17;;;;;;;4.90;2.10;;;;;;;;;;5031790;28;20048;-66
2023/12/24 00:20:43;;;;;;;9.32;2.78;;;;;;;;;;5039194;28;20037;-67
2023/12/24 00:23:10;;;;;;;10.73;2.28;;;;;;;;;;5035532;28;20091;-67
2023/12/24 00:25:36;;;;;;;13.50;2.97;;;;;;;;;;5032772;28;20040;-67
2023/12/24 00:28:03;;;;;;;10.07;3.53;;;;;;;;;;5036988;28;20065;-66
2023/12/24 00:30:29;;;;;;;7.40;2.80;;;;;;;;;;5039037;28;20034;-66
2023/12/24 00:32:55;;;;;;;9.00;3.13;;;;;;;;;;5033861;28;20037;-66
2023/12/24 00:35:21;;;;;;;11.90;3.30;;;;;;;;;;5036125;28;20033;-66
2023/12/24 00:37:48;;;;;;;10.88;2.97;;;;;;;;;;5039659;28;20843;-66
2023/12/24 00:40:14;;;;;;;8.05;2.58;;;;;;;;;;5038171;28;20120;-66
2023/12/24 00:42:41;;;;;;;6.05;2.40;;;;;;;;;;5037049;28;20033;-66
2023/12/24 00:45:08;;;;;;;6.72;2.20;;;;;;;;;;5032771;28;20041;-66
2023/12/24 00:47:34;;;;;;;3.38;1.77;;;;;;;;;;5035456;28;20567;-67
2023/12/24 00:50:00;;;;;;;4.88;2.42;;;;;;;;;;5038569;28;20520;-67
2023/12/24 00:52:26;;;;;;;5.30;1.85;;;;;;;;;;5037749;28;20501;-67
2023/12/24 00:54:52;;;;;;;9.77;3.08;;;;;;;;;;5038043;28;20063;-66
2023/12/24 00:57:18;;;;;;;7.00;2.28;;;;;;;;;;5035608;28;20059;-66
2023/12/24 00:59:44;;;;;;;9.23;2.47;;;;;;;;;;5037779;28;20037;-66
2023/12/24 01:02:10;;;;;;;10.38;2.35;;;;;;;;;;5041632;28;20523;-66
2023/12/24 01:04:36;;;;;;;10.68;2.20;;;;;;;;;;5044126;28;20143;-66
2023/12/24 01:07:02;;;;;;;7.55;2.20;;;;;;;;;;5043947;28;20166;-66
2023/12/24 01:09:28;;;;;;;6.32;2.22;;;;;;;;;;5046245;28;20049;-66
2023/12/24 01:11:54;;;;;;;6.30;2.20;;;;;;;;;;5048240;28;20044;-66
2023/12/24 01:14:20;;;;;;;10.80;2.03;;;;;;;;;;5049007;28;20095;-66
2023/12/24 01:16:46;;;;;;;6.25;2.28;;;;;;;;;;5050947;28;20091;-66
2023/12/24 01:19:13;;;;;;;8.48;2.63;;;;;;;;;;5051202;28;20036;-66
2023/12/24 01:21:39;;;;;;;10.63;3.13;;;;;;;;;;5050456;28;20098;-66
2023/12/24 01:24:05;;;;;;;8.10;2.47;;;;;;;;;;5050475;28;20044;-66
2023/12/24 01:26:34;;;;;;;11.18;2.60;;;;;;;;;;5046525;28;20045;-66
2023/12/24 01:29:00;;;;;;;7.78;2.42;;;;;;;;;;5050162;28;20094;-66
2023/12/24 01:31:27;;;;;;;8.23;2.13;;;;;;;;;;5051139;28;20088;-66
2023/12/24 01:33:53;;;;;;;7.43;2.40;;;;;;;;;;5051007;28;20051;-66
2023/12/24 01:36:19;;;;;;;5.53;1.90;;;;;;;;;;5050036;28;20724;-66
2023/12/24 01:38:45;;;;;;;9.07;2.95;;;;;;;;;;5050991;28;20615;-66
2023/12/24 01:41:12;;;;;;;8.88;2.08;;;;;;;;;;5050310;28;20619;-66
2023/12/24 01:43:40;;;;;;;3.58;1.67;;;;;;;;;;5049044;28;20044;-66
2023/12/24 01:46:06;;;;;;;5.70;2.28;;;;;;;;;;5050029;28;20379;-66
2023/12/24 01:48:32;;;;;;;5.93;2.00;;;;;;;;;;5050905;28;20066;-66
2023/12/24 01:51:00;;;;;;;3.40;1.85;;;;;;;;;;5050198;28;20107;-66
2023/12/24 01:53:27;;;;;;;8.27;2.42;;;;;;;;;;5050537;28;20033;-66
2023/12/24 01:55:53;;;;;;;6.07;2.50;;;;;;;;;;5049578;28;20074;-66
2023/12/24 01:58:19;;;;;;;5.65;1.90;;;;;;;;;;5045609;28;20045;-66
2023/12/24 02:00:46;;;;;;;7.78;2.35;;;;;;;;;;5049033;28;20492;-66
2023/12/24 02:03:13;;;;;;;6.25;2.13;;;;;;;;;;5048679;28;20342;-66
2023/12/24 02:05:40;;;;;;;7.20;2.42;;;;;;;;;;5049972;28;20045;-66
2023/12/24 02:08:08;;;;;;;8.25;2.17;;;;;;;;;;5050305;28;20121;-66
2023/12/24 02:10:34;;;;;;;6.82;2.15;;;;;;;;;;5050109;28;20036;-66
2023/12/24 02:13:00;;;;;;;5.82;2.50;;;;;;;;;;5044052;28;20037;-66
2023/12/24 02:15:26;;;;;;;9.23;2.35;;;;;;;;;;5043778;28;20486;-67
2023/12/24 02:17:52;;;;;;;5.85;2.20;;;;;;;;;;5046648;28;20041;-67
2023/12/24 02:20:18;;;;;;;5.28;1.90;;;;;;;;;;5046855;28;20098;-67
2023/12/24 02:22:44;;;;;;;8.23;2.92;;;;;;;;;;5045680;28;20079;-67
2023/12/24 02:25:11;;;;;;;5.03;2.22;;;;;;;;;;5046552;28;20142;-67
2023/12/24 02:27:43;;;;;;;3.95;2.08;;;;;;;;;;5045795;28;20076;-67
2023/12/24 02:30:12;;;;;;;6.50;2.40;;;;;;;;;;5046767;28;20470;-67
2023/12/24 02:32:39;;;;;;;5.97;2.13;;;;;;;;;;5046580;28;20048;-67
2023/12/24 02:35:06;;;;;;;7.75;2.10;;;;;;;;;;5045424;28;20041;-67
2023/12/24 02:37:32;;;;;;;9.65;2.80;;;;;;;;;;5046537;28;20041;-67
2023/12/24 02:39:58;;;;;;;5.85;2.15;;;;;;;;;;5042713;28;20640;-67
2023/12/24 02:42:24;;;;;;;12.20;2.55;;;;;;;;;;5044770;28;20041;-66
2023/12/24 02:44:50;;;;;;;8.10;2.50;;;;;;;;;;5046857;28;20044;-66
2023/12/24 02:47:16;;;;;;;8.90;2.30;;;;;;;;;;5044722;28;20069;-66
2023/12/24 02:49:42;;;;;;;7.68;2.50;;;;;;;;;;5046829;28;20041;-66
2023/12/24 02:52:08;;;;;;;10.93;2.47;;;;;;;;;;5044751;28;20049;-66
2023/12/24 02:54:34;;;;;;;8.50;2.10;;;;;;;;;;5044573;28;20041;-66
2023/12/24 02:57:00;;;;;;;7.28;1.88;;;;;;;;;;5045080;28;20124;-66
2023/12/24 02:59:28;;;;;;;6.40;2.65;;;;;;;;;;5046385;28;20116;-66
2023/12/24 03:01:54;;;;;;;9.55;2.25;;;;;;;;;;5043966;28;20055;-67
2023/12/24 03:04:20;;;;;;;8.85;2.67;;;;;;;;;;5044104;28;20144;-67
2023/12/24 03:06:46;;;;;;;6.30;1.70;;;;;;;;;;5045460;28;20060;-67
2023/12/24 03:09:12;;;;;;;4.40;2.22;;;;;;;;;;5043251;28;20076;-67
2023/12/24 03:11:38;;;;;;;6.68;2.33;;;;;;;;;;5045900;28;20048;-67
2023/12/24 03:14:04;;;;;;;5.25;2.17;;;;;;;;;;5045030;28;20047;-67
2023/12/24 03:16:30;;;;;;;5.85;1.77;;;;;;;;;;5045678;28;20033;-66
2023/12/24 03:18:56;;;;;;;7.78;2.35;;;;;;;;;;5044301;28;20048;-66
2023/12/24 03:21:22;;;;;;;8.13;1.70;;;;;;;;;;5044405;28;20091;-66
2023/12/24 03:23:48;;;;;;;4.45;1.83;;;;;;;;;;5043254;28;20045;-66
2023/12/24 03:26:24;;;;;;;5.82;1.70;;;;;;;;;;5043964;28;20443;-66
2023/12/24 03:28:50;;;;;;;3.92;1.50;;;;;;;;;;5044490;28;20396;-66
2023/12/24 03:31:17;;;;;;;3.70;1.48;;;;;;;;;;5044726;28;20040;-66
2023/12/24 03:33:43;;;;;;;5.68;1.92;;;;;;;;;;5045597;28;20087;-66
2023/12/24 03:36:09;;;;;;;4.93;1.75;;;;;;;;;;5043010;28;20078;-66
2023/12/24 03:38:38;;;;;;;2.63;1.30;;;;;;;;;;5043890;28;20049;-66
2023/12/24 03:41:04;;;;;;;3.55;1.27;;;;;;;;;;5045255;28;20033;-66
2023/12/24 03:43:30;;;;;;;3.90;1.10;;;;;;;;;;5042984;28;20420;-66
2023/12/24 03:45:56;;;;;;;3.10;1.83;;;;;;;;;;5042687;28;20041;-66
2023/12/24 03:48:22;;;;;;;1.63;0.80;;;;;;;;;;5045263;28;20736;-66
2023/12/24 03:50:48;;;;;;;4.00;1.10;;;;;;;;;;5044471;28;20068;-66
2023/12/24 03:53:14;;;;;;;3.53;1.65;;;;;;;;;;5045003;28;20080;-67
2023/12/24 03:55:40;;;;;;;5.88;1.30;;;;;;;;;;5045401;28;20061;-67
2023/12/24 03:58:06;;;;;;;4.47;1.23;;;;;;;;;;5044581;28;20143;-67
2023/12/24 04:00:32;;;;;;;3.58;1.42;;;;;;;;;;5045144;28;20424;-67
2023/12/24 04:02:59;;;;;;;3.42;1.40;;;;;;;;;;5042927;28;20047;-67
2023/12/24 04:05:25;;;;;;;3.60;1.13;;;;;;;;;;5043840;28;20088;-67
2023/12/24 04:07:51;;;;;;;5.10;1.10;;;;;;;;;;5045125;28;20125;-67
2023/12/24 04:10:17;;;;;;;1.83;0.70;;;;;;;;;;5044093;28;20068;-67
2023/12/24 04:12:43;;;;;;;1.70;1.02;;;;;;;;;;5043574;28;20544;-67
2023/12/24 04:15:10;;;;;;;1.80;1.15;;;;;;;;;;5042253;28;20144;-67
2023/12/24 04:17:36;;;;;;;2.13;0.82;;;;;;;;;;5039675;28;20041;-67
2023/12/24 04:20:03;;;;;;;3.22;0.63;;;;;;;;;;5043101;28;20098;-67
2023/12/24 04:22:29;;;;;;;1.20;0.60;;;;;;;;;;5040955;28;20568;-67
2023/12/24 04:24:55;;;;;;;1.13;0.93;;;;;;;;;;5041788;28;20041;-67
2023/12/24 04:27:21;;;;;;;1.65;0.80;;;;;;;;;;5042968;28;20049;-67
2023/12/24 04:29:47;;;;;;;1.02;0.82;;;;;;;;;;5042835;28;20048;-67
2023/12/24 04:32:13;;;;;;;2.63;1.20;;;;;;;;;;5044126;28;20406;-67
2023/12/24 04:34:39;;;;;;;1.13;0.75;;;;;;;;;;5044155;28;20041;-67
2023/12/24 04:37:05;;;;;;;1.65;1.40;;;;;;;;;;5044099;28;20079;-67
2023/12/24 04:39:31;;;;;;;1.98;1.70;;;;;;;;;;5042897;28;20044;-67
2023/12/24 04:41:57;;;;;;;2.00;1.25;;;;;;;;;;5040073;28;20068;-67
2023/12/24 04:44:23;;;;;;;2.38;1.17;;;;;;;;;;5044174;28;20098;-67
2023/12/24 04:46:50;;;;;;;2.30;1.10;;;;;;;;;;5042769;28;20132;-67
2023/12/24 04:49:16;;;;;;;2.63;1.35;;;;;;;;;;5043310;28;20087;-67
2023/12/24 04:51:42;;;;;;;2.38;1.60;;;;;;;;;;5044310;28;20540;-67
2023/12/24 04:54:08;;;;;;;3.30;1.60;;;;;;;;;;5042141;28;20049;-67
2023/12/24 04:56:34;;;;;;;2.03;1.33;;;;;;;;;;5043313;28;20118;-67
2023/12/24 04:59:00;;;;;;;2.90;1.40;;;;;;;;;;5043507;28;20064;-67
2023/12/24 05:01:26;;;;;;;1.73;1.40;;;;;;;;;;5043897;28;20045;-67
2023/12/24 05:03:52;;;;;;;2.65;1.77;;;;;;;;;;5044451;28;20037;-67
2023/12/24 05:06:18;;;;;;;2.80;1.63;;;;;;;;;;5041860;28;20041;-67
2023/12/24 05:08:44;;;;;;;4.43;1.38;;;;;;;;;;5044119;28;20049;-67
2023/12/24 05:11:10;;;;;;;6.03;1.60;;;;;;;;;;5043643;28;20059;-67
2023/12/24 05:13:37;;;;;;;6.15;2.47;;;;;;;;;;5043190;28;20110;-67
2023/12/24 05:16:03;;;;;;;5.60;2.42;;;;;;;;;;5043749;28;20071;-67
2023/12/24 05:18:29;;;;;;;7.28;2.25;;;;;;;;;;5043962;28;20045;-67
2023/12/24 05:20:55;;;;;;;6.25;1.92;;;;;;;;;;5041423;28;20040;-67
2023/12/24 05:23:21;;;;;;;8.18;2.53;;;;;;;;;;5042783;28;20135;-67
2023/12/24 05:25:48;;;;;;;4.97;2.03;;;;;;;;;;5041860;28;20139;-67
2023/12/24 05:28:16;;;;;;;4.57;2.05;;;;;;;;;;5043319;28;20052;-67
2023/12/24 05:30:42;;;;;;;2.97;2.17;;;;;;;;;;5043230;28;20047;-67
2023/12/24 05:33:09;;;;;;;8.68;2.53;;;;;;;;;;5043892;28;20037;-67
2023/12/24 05:35:35;;;;;;;8.15;2.42;;;;;;;;;;5042094;28;20036;-67
2023/12/24 05:38:00;;;;;;;7.38;2.40;;;;;;;;;;5042115;28;20458;-67
2023/12/24 05:40:26;;;;;;;9.52;1.98;;;;;;;;;;5044113;28;20052;-67
2023/12/24 05:42:52;;;;;;;8.13;2.40;;;;;;;;;;5042192;28;20045;-67
2023/12/24 05:45:19;;;;;;;7.47;2.30;;;;;;;;;;5041983;28;20051;-67
2023/12/24 05:47:45;;;;;;;6.20;2.55;;;;;;;;;;5044376;28;20720;-67
2023/12/24 05:50:11;;;;;;;6.47;2.30;;;;;;;;;;5046240;28;20078;-67
2023/12/24 05:52:37;;;;;;;7.93;2.95;;;;;;;;;;5044921;28;20416;-67
2023/12/24 05:55:04;;;;;;;6.63;1.88;;;;;;;;;;5040840;28;20036;-67
2023/12/24 05:57:30;;;;;;;8.85;2.58;;;;;;;;;;5076242;28;20098;-67
2023/12/24 05:59:57;;;;;;;8.70;2.70;;;;;;;;;;5047078;28;20483;-67
2023/12/24 06:02:23;;;;;;;9.18;2.65;;;;;;;;;;5046257;28;20052;-67
2023/12/24 06:04:49;;;;;;;5.45;2.20;;;;;;;;;;5045909;28;20495;-67
2023/12/24 06:07:15;;;;;;;15.15;3.55;;;;;;;;;;5042660;28;20041;-67
2023/12/24 06:09:40;;;;;;;6.97;2.20;;;;;;;;;;5044439;28;20051;-67
2023/12/24 06:12:07;;;;;;;6.30;2.25;;;;;;;;;;5046796;28;20378;-67
2023/12/24 06:14:33;;;;;;;4.30;1.77;;;;;;;;;;5046287;28;20037;-67
2023/12/24 06:16:59;;;;;;;7.95;2.75;;;;;;;;;;5045622;28;20110;-67
2023/12/24 06:19:25;;;;;;;9.43;2.85;;;;;;;;;;5040540;28;20041;-67
2023/12/24 06:21:51;;;;;;;5.18;1.90;;;;;;;;;;5046331;28;20043;-67
2023/12/24 06:24:20;;;;;;;6.38;2.08;;;;;;;;;;5043412;28;20045;-67
2023/12/24 06:26:47;;;;;;;5.43;1.60;;;;;;;;;;5043477;28;20095;-67
2023/12/24 06:29:13;;;;;;;7.72;2.35;;;;;;;;;;5045582;28;20071;-67
2023/12/24 06:31:39;;;;;;;4.95;1.90;;;;;;;;;;5046236;28;20539;-67
2023/12/24 06:34:05;;;;;;;6.95;2.50;;;;;;;;;;5045857;28;20045;-67
2023/12/24 06:36:31;;;;;;;5.28;2.00;;;;;;;;;;5045138;28;20090;-67
2023/12/24 06:38:57;;;;;;;8.23;1.98;;;;;;;;;;5041910;28;20140;-67
2023/12/24 06:41:23;;;;;;;7.00;2.03;;;;;;;;;;5047040;28;20040;-67
2023/12/24 06:43:50;;;;;;;5.78;1.77;;;;;;;;;;5046181;28;20060;-67
2023/12/24 06:46:16;;;;;;;5.25;1.83;;;;;;;;;;5046062;28;20037;-67
2023/12/24 06:48:42;;;;;;;3.42;1.70;;;;;;;;;;5046447;28;20051;-67
2023/12/24 06:51:08;;;;;;;3.70;1.73;;;;;;;;;;5045611;28;20096;-67
2023/12/24 06:53:36;;;;;;;7.93;1.60;;;;;;;;;;5044588;28;20068;-67
2023/12/24 06:56:02;;;;;;;6.35;1.90;;;;;;;;;;5046114;28;20162;-67
2023/12/24 06:58:28;;;;;;;5.03;1.85;;;;;;;;;;5045313;28;20048;-67
2023/12/24 07:00:54;;;;;;;12.48;2.63;;;;;;;;;;5044766;28;20053;-67
2023/12/24 07:03:20;;;;;;;4.45;1.65;;;;;;;;;;5046026;28;20234;-67
2023/12/24 07:05:46;;;;;;;5.40;1.60;;;;;;;;;;5045681;28;20068;-67
2023/12/24 07:08:12;;;;;;;11.27;2.65;;;;;;;;;;5045179;28;20127;-67
2023/12/24 07:10:38;;;;;;;5.25;1.92;;;;;;;;;;5046596;28;20048;-67
2023/12/24 07:13:04;;;;;;;12.05;2.40;;;;;;;;;;5045389;28;21000;-67
2023/12/24 07:15:37;;;;;;;6.68;2.17;;;;;;;;;;5045125;28;20037;-67
2023/12/24 07:18:03;;;;;;;16.23;3.22;;;;;;;;;;5044053;28;20099;-67
2023/12/24 07:20:29;;;;;;;8.52;2.60;;;;;;;;;;5045431;28;20384;-67
2023/12/24 07:22:55;;;;;;;6.43;1.90;;;;;;;;;;5046210;28;20045;-67
2023/12/24 07:25:21;;;;;;;5.35;2.20;;;;;;;;;;5044402;28;20048;-67
2023/12/24 07:27:47;;;;;;;4.47;1.98;;;;;;;;;;5043485;28;20060;-67
2023/12/24 07:30:14;;;;;;;9.00;3.00;;;;;;;;;;5044519;28;20127;-67
2023/12/24 07:32:44;;;;;;;6.55;2.47;;;;;;;;;;5045500;28;20103;-67
2023/12/24 07:35:10;;;;;;;6.47;2.05;;;;;;;;;;5044409;28;20132;-67
2023/12/24 07:37:36;;;;;;;15.52;3.33;;;;;;;;;;5045457;28;20048;-66
2023/12/24 07:40:03;;;;;;;9.45;2.33;;;;;;;;;;5045760;28;20045;-66
2023/12/24 07:42:29;;;;;;;12.00;2.25;;;;;;;;;;5044598;28;20107;-66
2023/12/24 07:44:55;;;;;;;9.57;2.50;;;;;;;;;;5031708;28;20385;-66
2023/12/24 07:47:21;;;;;;;8.63;2.33;;;;;;;;;;5045291;28;20040;-67
2023/12/24 07:49:47;;;;;;;7.50;2.05;;;;;;;;;;5044950;28;20558;-67
2023/12/24 07:52:13;;;;;;;7.55;2.17;;;;;;;;;;5045448;28;20041;-67
2023/12/24 07:54:39;;;;;;;6.30;2.50;;;;;;;;;;5045614;28;20044;-67
2023/12/24 07:57:05;;;;;;;8.93;2.20;;;;;;;;;;5041292;28;20080;-67
2023/12/24 07:59:31;;;;;;;6.10;2.05;;;;;;;;;;5043832;28;20070;-67
2023/12/24 08:01:57;;;;;;;7.25;2.40;;;;;;;;;;5044814;28;20424;-67
2023/12/24 08:04:23;;;;;;;7.50;2.70;;;;;;;;;;5044038;28;20033;-67
2023/12/24 08:06:50;;;;;;;8.23;2.90;;;;;;;;;;5045481;28;20472;-67
2023/12/24 08:09:16;;;;;;;4.68;2.00;;;;;;;;;;5041489;28;20049;-67
2023/12/24 08:11:42;;;;;;;5.53;2.33;;;;;;;;;;5045012;28;20676;-67
2023/12/24 08:14:08;;;;;;;8.77;2.50;;;;;;;;;;5045293;28;20041;-67
2023/12/24 08:16:35;;;;;;;5.40;2.25;;;;;;;;;;5044443;28;20119;-66
2023/12/24 08:19:02;;;;;;;6.63;1.92;;;;;;;;;;5043634;28;20377;-66
2023/12/24 08:21:28;;;;;;;8.10;2.53;;;;;;;;;;5042387;28;20048;-66
2023/12/24 08:23:54;;;;;;;10.80;2.83;;;;;;;;;;5042790;28;20047;-66
2023/12/24 08:26:20;;;;;;;7.25;2.78;;;;;;;;;;5044327;28;20598;-66
2023/12/24 08:28:46;;;;;;;11.20;2.83;;;;;;;;;;5045019;28;20389;-66
2023/12/24 08:31:13;;;;;;;10.88;2.95;;;;;;;;;;5043675;28;20448;-67
2023/12/24 08:33:39;;;;;;;5.72;2.70;;;;;;;;;;5043242;28;20370;-67
2023/12/24 08:36:06;;;;;;;10.15;2.70;;;;;;;;;;5043653;28;20047;-67
2023/12/24 08:38:32;;;;;;;4.95;2.10;;;;;;;;;;5038297;28;20042;-67
2023/12/24 08:40:59;;;;;;;7.85;2.17;;;;;;;;;;5044667;28;20048;-67
2023/12/24 08:43:25;;;;;;;9.73;2.63;;;;;;;;;;5039039;28;20069;-67
2023/12/24 08:45:51;;;;;;;5.75;2.13;;;;;;;;;;5037763;28;20071;-67
2023/12/24 08:48:17;;;;;;;9.75;2.90;;;;;;;;;;5039018;28;20386;-67
2023/12/24 08:50:43;;;;;;;7.57;3.10;;;;;;;;;;5041156;28;20470;-66
2023/12/24 08:53:09;;;;;;;10.32;2.60;;;;;;;;;;5040220;28;20536;-66
2023/12/24 08:55:35;;;;;;;11.65;3.60;;;;;;;;;;5042936;28;20037;-66
2023/12/24 08:58:01;;;;;;;8.07;2.70;;;;;;;;;;5042683;28;20044;-66
2023/12/24 09:00:27;;;;;;;10.40;3.20;;;;;;;;;;5040024;28;20106;-66
2023/12/24 09:02:53;;;;;;;10.63;3.22;;;;;;;;;;5039806;28;20094;-67
2023/12/24 09:05:19;;;;;;;8.13;2.40;;;;;;;;;;5035705;28;20411;-67
2023/12/24 09:07:45;;;;;;;6.00;1.90;;;;;;;;;;5039572;28;20056;-67
2023/12/24 09:10:12;;;;;;;8.48;3.05;;;;;;;;;;5039121;28;20052;-67
2023/12/24 09:12:38;;;;;;;11.25;2.67;;;;;;;;;;5037425;28;20816;-67
2023/12/24 09:15:04;;;;;;;9.52;1.58;;;;;;;;;;5040890;28;20473;-67
2023/12/24 09:17:30;;;;;;;10.38;2.50;;;;;;;;;;5039397;28;20060;-67
2023/12/24 09:19:57;;;;;;;13.80;3.47;;;;;;;;;;5036858;28;20049;-67
2023/12/24 09:22:23;;;;;;;12.40;2.38;;;;;;;;;;5034305;28;20048;-66
2023/12/24 09:24:49;;;;;;;10.43;2.40;;;;;;;;;;5040262;28;20072;-66
2023/12/24 09:27:14;;;;;;;4.35;1.70;;;;;;;;;;5044490;28;20083;-67
2023/12/24 09:29:41;;;;;;;9.68;1.92;;;;;;;;;;5046141;28;20052;-67
2023/12/24 09:32:07;;;;;;;8.55;1.83;;;;;;;;;;5044106;28;20087;-66
2023/12/24 09:34:33;;;;;;;6.88;2.13;;;;;;;;;;5046896;28;20136;-66
2023/12/24 09:37:00;;;;;;;8.63;2.70;;;;;;;;;;5047302;28;20635;-66
2023/12/24 09:39:25;;;;;;;6.57;2.50;;;;;;;;;;5047341;28;20036;-67
2023/12/24 09:41:52;;;;;;;8.98;2.28;;;;;;;;;;5047926;28;20044;-67
2023/12/24 09:44:18;;;;;;;9.18;2.03;;;;;;;;;;5047085;28;20044;-67
2023/12/24 09:46:44;;;;;;;6.90;1.88;;;;;;;;;;5048738;28;20040;-66
2023/12/24 09:49:10;;;;;;;6.80;1.90;;;;;;;;;;5047766;28;20456;-66
2023/12/24 09:51:38;;;;;;;14.70;3.25;;;;;;;;;;5046041;28;20060;-64
2023/12/24 09:54:05;;;;;;;12.60;2.88;;;;;;;;;;5048859;28;20491;-65
2023/12/24 09:56:31;;;;;;;8.73;2.50;;;;;;;;;;5047922;28;20120;-62
2023/12/24 09:58:56;;;;;;;5.90;2.10;;;;;;;;;;5048768;28;20143;-65
2023/12/24 10:01:22;;;;;;;8.25;1.90;;;;;;;;;;5044276;28;20041;-66
2023/12/24 10:03:48;;;;;;;9.48;2.45;;;;;;;;;;5041037;28;20048;-66
2023/12/24 10:06:14;;;;;;;6.80;2.08;;;;;;;;;;5047599;28;20599;-66
2023/12/24 10:08:40;;;;;;;6.07;2.15;;;;;;;;;;5040107;28;20048;-66
2023/12/24 10:11:20;;;;;;;6.78;1.70;;;;;;;;;;5047987;28;20048;-66
2023/12/24 10:13:47;;;;;;;9.23;2.15;;;;;;;;;;5046145;28;20041;-66
2023/12/24 10:16:13;;;;;;;8.00;2.08;;;;;;;;;;5047760;28;20169;-66
2023/12/24 10:18:47;;;;;;;5.65;2.33;;;;;;;;;;5045241;28;20140;-66
2023/12/24 10:21:13;;;;;;;6.57;1.52;;;;;;;;;;5045814;28;20049;-66
2023/12/24 10:23:40;;;;;;;9.57;2.40;;;;;;;;;;5043231;28;20067;-66
2023/12/24 10:26:08;;;;;;;5.53;1.92;;;;;;;;;;5044654;28;20477;-66
2023/12/24 10:28:35;;;;;;;5.10;1.83;;;;;;;;;;5045447;28;20076;-66
2023/12/24 10:31:07;;;;;;;6.63;2.03;;;;;;;;;;5045801;28;20045;-66
2023/12/24 10:33:34;;;;;;;8.90;2.45;;;;;;;;;;5045903;28;20040;-66
2023/12/24 10:36:00;;;;;;;13.27;3.00;;;;;;;;;;5045282;28;20400;-67
2023/12/24 10:38:27;;;;;;;8.05;2.05;;;;;;;;;;5045279;28;20040;-67
2023/12/24 10:40:53;;;;;;;11.13;2.55;;;;;;;;;;5046794;28;20041;-67
2023/12/24 10:43:20;;;;;;;9.18;2.72;;;;;;;;;;5043517;28;20048;-67
2023/12/24 10:45:46;;;;;;;9.45;2.65;;;;;;;;;;5043084;28;20584;-67
2023/12/24 10:48:12;;;;;;;8.80;2.13;;;;;;;;;;5042617;28;20124;-67
2023/12/24 10:50:38;;;;;;;5.00;1.70;;;;;;;;;;5041605;28;20052;-67
2023/12/24 10:53:04;;;;;;;8.82;2.03;;;;;;;;;;5043918;28;20499;-67
2023/12/24 10:55:31;;;;;;;11.43;2.72;;;;;;;;;;5041012;28;20033;-67
2023/12/24 10:58:16;;;;;;;10.50;2.90;;;;;;;;;;5043029;28;20037;-67
2023/12/24 11:00:42;;;;;;;17.00;2.47;;;;;;;;;;5043826;28;20045;-67
2023/12/24 11:03:08;;;;;;;5.72;1.83;;;;;;;;;;5042376;28;20045;-67
2023/12/24 11:05:42;;;;;;;6.25;1.98;;;;;;;;;;5041775;28;20785;-67
2023/12/24 11:08:20;;;;;;;10.30;2.38;;;;;;;;;;5040976;28;20121;-67
2023/12/24 11:10:52;;;;;;;10.27;2.22;;;;;;;;;;5044361;28;20037;-67
2023/12/24 11:13:36;;;;;;;8.40;2.65;;;;;;;;;;5038448;28;20045;-67
2023/12/24 11:16:03;;;;;;;9.63;2.10;;;;;;;;;;5044219;28;20610;-67
2023/12/24 11:18:42;;;;;;;7.63;2.42;;;;;;;;;;5042210;28;20051;-67
2023/12/24 11:21:10;;;;;;;9.27;2.05;;;;;;;;;;5042897;28;20572;-67
2023/12/24 11:23:36;;;;;;;12.88;2.78;;;;;;;;;;5045170;28;20409;-67
2023/12/24 11:26:22;;;;;;;9.55;2.17;;;;;;;;;;5041904;28;20520;-67
2023/12/24 11:28:48;;;;;;;10.77;2.30;;;;;;;;;;5038168;28;20048;-67
2023/12/24 11:31:22;;;;;;;7.20;2.17;;;;;;;;;;5039358;28;20431;-67
2023/12/24 11:33:49;;;;;;;9.68;2.13;;;;;;;;;;5042006;28;20072;-67
2023/12/24 11:36:15;;;;;;;7.25;2.17;;;;;;;;;;5038968;28;20521;-67
2023/12/24 11:38:42;;;;;;;7.63;2.05;;;;;;;;;;5040306;28;20044;-67
2023/12/24 11:41:08;;;;;;;9.70;2.10;;;;;;;;;;5037350;28;20053;-67
2023/12/24 11:43:35;;;;;;;12.15;2.58;;;;;;;;;;5041395;28;20627;-67
2023/12/24 11:46:01;;;;;;;9.57;2.10;;;;;;;;;;5036253;28;20405;-67
2023/12/24 11:48:28;;;;;;;9.57;2.08;;;;;;;;;;5044296;28;20072;-67
2023/12/24 11:51:06;;;;;;;6.43;2.08;;;;;;;;;;5044765;28;20124;-67
2023/12/24 11:53:33;;;;;;;9.90;2.10;;;;;;;;;;5037363;28;20135;-67
2023/12/24 11:56:03;;;;;;;11.85;2.38;;;;;;;;;;5040393;28;20502;-67
2023/12/24 11:58:29;;;;;;;8.95;2.17;;;;;;;;;;5072006;28;20059;-67
2023/12/24 12:00:55;;;;;;;7.15;2.00;;;;;;;;;;5033742;28;20802;-67
2023/12/24 12:03:21;;;;;;;12.88;2.00;;;;;;;;;;5040885;28;20123;-67
2023/12/24 12:05:47;;;;;;;10.52;2.30;;;;;;;;;;5038585;28;20386;-68
2023/12/24 12:08:13;;;;;;;5.40;1.63;;;;;;;;;;5037134;28;20067;-68
2023/12/24 12:10:40;;;;;;;10.10;2.15;;;;;;;;;;5042054;28;20948;-68
2023/12/24 12:13:06;;;;;;;5.05;1.52;;;;;;;;;;5038693;28;20052;-67
2023/12/24 12:15:32;;;;;;;7.60;2.05;;;;;;;;;;5037777;28;20045;-67
2023/12/24 12:17:58;;;;;;;5.32;2.05;;;;;;;;;;5039218;28;20511;-67
2023/12/24 12:20:25;;;;;;;6.47;2.03;;;;;;;;;;5039968;28;20095;-67
2023/12/24 12:22:52;;;;;;;4.95;1.55;;;;;;;;;;5040136;28;20045;-68
2023/12/24 12:25:17;;;;;;;8.65;2.08;;;;;;;;;;5041801;28;20076;-61
2023/12/24 12:27:43;;;;;;;7.93;2.35;;;;;;;;;;5040135;28;20454;-67
2023/12/24 12:30:10;;;;;;;7.30;2.00;;;;;;;;;;5040891;28;20048;-67
2023/12/24 12:32:36;;;;;;;6.65;2.15;;;;;;;;;;5039634;28;20062;-67
2023/12/24 12:35:02;;;;;;;9.52;2.20;;;;;;;;;;5042220;28;20132;-67
2023/12/24 12:37:28;;;;;;;6.07;1.88;;;;;;;;;;5042055;28;20099;-67
2023/12/24 12:39:55;;;;;;;7.57;2.30;;;;;;;;;;5039024;28;20037;-68
2023/12/24 12:42:21;;;;;;;12.43;2.72;;;;;;;;;;5044005;28;20079;-68
2023/12/24 12:44:47;;;;;;;6.65;2.47;;;;;;;;;;5044684;28;20076;-67
2023/12/24 12:47:13;;;;;;;5.57;1.95;;;;;;;;;;5039087;28;20590;-67
2023/12/24 12:49:43;;;;;;;11.52;2.55;;;;;;;;;;5044686;28;20084;-67
2023/12/24 12:52:10;;;;;;;11.77;2.45;;;;;;;;;;5042975;28;20504;-67
2023/12/24 12:54:36;;;;;;;9.93;1.88;;;;;;;;;;5044566;28;20683;-67
2023/12/24 12:57:02;;;;;;;13.27;2.45;;;;;;;;;;5044392;28;20106;-67
2023/12/24 12:59:28;;;;;;;5.45;1.60;;;;;;;;;;5044360;28;20068;-67
2023/12/24 13:01:55;;;;;;;8.88;1.95;;;;;;;;;;5044842;28;20120;-67
2023/12/24 13:04:25;;;;;;;10.02;2.00;;;;;;;;;;5044552;28;20052;-67
2023/12/24 13:07:00;;;;;;;12.50;3.15;;;;;;;;;;5045082;28;20036;-68
2023/12/24 13:09:30;;;;;;;8.88;2.20;;;;;;;;;;5040776;28;20572;-67
2023/12/24 13:12:06;;;;;;;5.93;1.77;;;;;;;;;;5038490;28;20476;-70
2023/12/24 13:14:32;;;;;;;8.38;2.13;;;;;;;;;;5034834;28;20075;-68
2023/12/24 13:17:09;;;;;;;8.45;2.17;;;;;;;;;;5043345;28;20045;-68
2023/12/24 13:19:35;;;;;;;14.57;3.15;;;;;;;;;;5038231;28;20088;-67
2023/12/24 13:22:05;;;;;;;7.38;1.90;;;;;;;;;;5034391;28;20052;-68
2023/12/24 13:24:31;;;;;;;6.95;1.67;;;;;;;;;;5042531;28;20040;-68
2023/12/24 13:26:58;;;;;;;7.03;2.05;;;;;;;;;;5042556;28;20068;-68
2023/12/24 13:29:24;;;;;;;10.38;2.38;;;;;;;;;;5042813;28;20059;-68
2023/12/24 13:31:50;;;;;;;5.55;1.67;;;;;;;;;;5043024;28;20090;-68
2023/12/24 13:34:20;;;;;;;6.93;2.05;;;;;;;;;;5042627;28;20049;-67
2023/12/24 13:36:46;;;;;;;7.60;2.13;;;;;;;;;;5042888;28;20571;-67
2023/12/24 13:39:15;;;;;;;8.15;2.03;;;;;;;;;;5045016;28;20051;-67
2023/12/24 13:41:41;;;;;;;6.30;2.10;;;;;;;;;;5040936;28;20044;-67
2023/12/24 13:44:07;;;;;;;9.63;2.60;;;;;;;;;;5043491;28;20041;-68
2023/12/24 13:46:33;;;;;;;7.65;1.90;;;;;;;;;;5044028;28;20033;-68
2023/12/24 13:48:59;;;;;;;4.78;1.65;;;;;;;;;;5038444;28;20160;-68
2023/12/24 13:51:25;;;;;;;7.88;2.13;;;;;;;;;;5044297;28;20045;-68
2023/12/24 13:53:51;;;;;;;8.20;3.03;;;;;;;;;;5043813;28;20137;-68
2023/12/24 13:56:18;;;;;;;6.68;2.15;;;;;;;;;;5042854;28;20085;-68
2023/12/24 13:58:45;;;;;;;5.65;1.88;;;;;;;;;;5044727;28;20475;-68
2023/12/24 14:01:11;;;;;;;11.48;2.40;;;;;;;;;;5042512;28;20048;-68
2023/12/24 14:03:37;;;;;;;6.00;1.77;;;;;;;;;;5042001;28;20056;-68
2023/12/24 14:06:04;;;;;;;5.68;1.65;;;;;;;;;;5042886;28;20033;-68
2023/12/24 14:08:30;;;;;;;4.25;1.10;;;;;;;;;;5044214;28;20059;-68
2023/12/24 14:10:57;;;;;;;1.70;1.02;;;;;;;;;;5042273;28;20493;-68
2023/12/24 14:13:23;;;;;;;7.10;1.55;;;;;;;;;;5030104;28;20080;-68
2023/12/24 14:15:49;;;;;;;5.60;1.25;;;;;;;;;;5027617;28;20494;-68
2023/12/24 14:18:15;;;;;;;3.15;1.70;;;;;;;;;;5030028;28;20041;-69
2023/12/24 14:20:41;;;;;;;3.28;1.10;;;;;;;;;;5041817;28;20044;-69
2023/12/24 14:23:08;;;;;;;3.50;0.93;;;;;;;;;;5038339;28;20037;-69
2023/12/24 14:25:35;;;;;;;2.47;0.70;;;;;;;;;;5046075;28;20635;-69
2023/12/24 14:28:01;;;;;;;1.90;1.05;;;;;;;;;;5033402;28;20110;-69
2023/12/24 14:30:26;;;;;;;3.40;1.00;;;;;;;;;;5041620;28;20044;-69
2023/12/24 14:32:52;;;;;;;3.70;0.95;;;;;;;;;;5038935;28;20068;-68
2023/12/24 14:35:19;;;;;;;3.00;0.90;;;;;;;;;;5044445;28;20040;-69
2023/12/24 14:37:45;;;;;;;4.35;1.15;;;;;;;;;;5047040;28;20499;-69